sensor_id;sensor_type;location;lat;lon;timestamp;temperature;humidity
22678;DHT22;26259;50.214;18.620;2023-02-11T00:01:23;-3.20;99.90
22678;DHT22;26259;50.214;18.620;2023-02-11T00:03:49;-3.20;99.90
22678;DHT22;26259;50.214;18.620;2023-02-11T00:06:15;-3.20;99.90
22678;DHT22;26259;50.214;18.620;2023-02-11T00:08:41;-3.20;99.90
22678;DHT22;26259;50.214;18.620;2023-02-11T00:11:06;-3.20;99.90
22678;DHT22;26259;50.214;18.620;2023-02-11T00:13:32;-3.20;99.90
22678;DHT22;26259;50.214;18.620;2023-02-11T00:15:58;-3.20;99.90
22678;DHT22;26259;50.214;18.620;2023-02-11T00:18:24;-3.20;99.90
22678;DHT22;26259;50.214;18.620;2023-02-11T00:20:49;-3.30;99.90
22678;DHT22;26259;50.214;18.620;2023-02-11T00:23:15;-3.30;99.90
22678;DHT22;26259;50.214;18.620;2023-02-11T00:25:42;-3.30;99.90
22678;DHT22;26259;50.214;18.620;2023-02-11T00:28:08;-3.30;99.90
22678;DHT22;26259;50.214;18.620;2023-02-11T00:30:34;-3.40;99.90
22678;DHT22;26259;50.214;18.620;2023-02-11T00:33:00;-3.40;99.90
22678;DHT22;26259;50.214;18.620;2023-02-11T00:35:26;-3.40;99.90
22678;DHT22;26259;50.214;18.620;2023-02-11T00:37:55;-3.40;99.90
22678;DHT22;26259;50.214;18.620;2023-02-11T00:40:21;-3.30;99.90
22678;DHT22;26259;50.214;18.620;2023-02-11T00:42:46;-3.40;99.90
22678;DHT22;26259;50.214;18.620;2023-02-11T00:45:12;-3.40;99.90
22678;DHT22;26259;50.214;18.620;2023-02-11T00:47:38;-3.40;99.90
22678;DHT22;26259;50.214;18.620;2023-02-11T00:50:04;-3.40;99.90
22678;DHT22;26259;50.214;18.620;2023-02-11T00:52:31;-3.40;99.90
22678;DHT22;26259;50.214;18.620;2023-02-11T00:54:57;-3.40;99.90
22678;DHT22;26259;50.214;18.620;2023-02-11T00:57:22;-3.30;99.90
22678;DHT22;26259;50.214;18.620;2023-02-11T00:59:48;-3.30;99.90
22678;DHT22;26259;50.214;18.620;2023-02-11T01:02:15;-3.20;99.90
22678;DHT22;26259;50.214;18.620;2023-02-11T01:04:40;-3.10;99.90
22678;DHT22;26259;50.214;18.620;2023-02-11T01:07:06;-3.10;99.90
22678;DHT22;26259;50.214;18.620;2023-02-11T01:09:32;-2.90;99.90
22678;DHT22;26259;50.214;18.620;2023-02-11T01:11:57;-2.80;99.90
22678;DHT22;26259;50.214;18.620;2023-02-11T01:14:23;-2.80;99.90
22678;DHT22;26259;50.214;18.620;2023-02-11T01:16:48;-2.80;99.90
22678;DHT22;26259;50.214;18.620;2023-02-11T01:19:14;-2.80;99.90
22678;DHT22;26259;50.214;18.620;2023-02-11T01:21:39;-2.80;99.90
22678;DHT22;26259;50.214;18.620;2023-02-11T01:24:05;-2.80;99.90
22678;DHT22;26259;50.214;18.620;2023-02-11T01:26:31;-2.80;99.90
22678;DHT22;26259;50.214;18.620;2023-02-11T01:28:57;-2.70;99.90
22678;DHT22;26259;50.214;18.620;2023-02-11T01:31:25;-2.70;99.90
22678;DHT22;26259;50.214;18.620;2023-02-11T01:33:51;-2.60;99.90
22678;DHT22;26259;50.214;18.620;2023-02-11T01:36:16;-2.50;99.90
22678;DHT22;26259;50.214;18.620;2023-02-11T01:38:42;-2.40;99.90
22678;DHT22;26259;50.214;18.620;2023-02-11T01:41:12;-2.30;99.90
22678;DHT22;26259;50.214;18.620;2023-02-11T01:43:46;-2.20;99.90
22678;DHT22;26259;50.214;18.620;2023-02-11T01:46:34;-2.10;99.90
22678;DHT22;26259;50.214;18.620;2023-02-11T01:49:11;-2.00;99.90
22678;DHT22;26259;50.214;18.620;2023-02-11T01:51:42;-1.90;99.90
22678;DHT22;26259;50.214;18.620;2023-02-11T01:54:11;-1.80;99.90
22678;DHT22;26259;50.214;18.620;2023-02-11T01:56:58;-1.70;99.90
22678;DHT22;26259;50.214;18.620;2023-02-11T02:02:19;-1.40;99.90
22678;DHT22;26259;50.214;18.620;2023-02-11T02:04:54;-1.40;99.90
22678;DHT22;26259;50.214;18.620;2023-02-11T02:07:32;-1.40;99.90
22678;DHT22;26259;50.214;18.620;2023-02-11T02:10:08;-1.30;99.90
22678;DHT22;26259;50.214;18.620;2023-02-11T02:12:36;-1.20;99.90
22678;DHT22;26259;50.214;18.620;2023-02-11T02:15:18;-1.20;99.90
22678;DHT22;26259;50.214;18.620;2023-02-11T02:17:56;-1.10;99.90
22678;DHT22;26259;50.214;18.620;2023-02-11T02:23:22;-1.10;99.90
22678;DHT22;26259;50.214;18.620;2023-02-11T02:31:46;-1.00;99.90
22678;DHT22;26259;50.214;18.620;2023-02-11T02:34:31;-0.90;99.90
22678;DHT22;26259;50.214;18.620;2023-02-11T02:37:14;-0.90;99.90
22678;DHT22;26259;50.214;18.620;2023-02-11T02:39:42;-0.80;99.90
22678;DHT22;26259;50.214;18.620;2023-02-11T02:42:10;-0.70;99.90
22678;DHT22;26259;50.214;18.620;2023-02-11T02:44:36;-0.70;99.90
22678;DHT22;26259;50.214;18.620;2023-02-11T02:47:02;-0.70;99.90
22678;DHT22;26259;50.214;18.620;2023-02-11T02:49:27;-0.70;99.90
22678;DHT22;26259;50.214;18.620;2023-02-11T03:03:02;-0.50;99.90
22678;DHT22;26259;50.214;18.620;2023-02-11T03:05:31;-0.50;99.90
22678;DHT22;26259;50.214;18.620;2023-02-11T03:08:17;-0.50;99.90
22678;DHT22;26259;50.214;18.620;2023-02-11T03:10:48;-0.40;99.90
22678;DHT22;26259;50.214;18.620;2023-02-11T03:13:15;-0.40;99.90
22678;DHT22;26259;50.214;18.620;2023-02-11T03:15:45;-0.40;99.90
22678;DHT22;26259;50.214;18.620;2023-02-11T03:18:18;-0.50;99.90
22678;DHT22;26259;50.214;18.620;2023-02-11T03:20:48;-0.50;99.90
22678;DHT22;26259;50.214;18.620;2023-02-11T03:23:28;-0.50;99.90
22678;DHT22;26259;50.214;18.620;2023-02-11T03:28:54;-0.60;99.90
22678;DHT22;26259;50.214;18.620;2023-02-11T03:31:40;-0.60;99.90
22678;DHT22;26259;50.214;18.620;2023-02-11T03:37:31;-0.60;99.90
22678;DHT22;26259;50.214;18.620;2023-02-11T03:42:36;-0.60;99.90
22678;DHT22;26259;50.214;18.620;2023-02-11T03:45:10;-0.60;99.90
22678;DHT22;26259;50.214;18.620;2023-02-11T03:47:40;-0.60;99.90
22678;DHT22;26259;50.214;18.620;2023-02-11T03:50:09;-0.60;99.90
22678;DHT22;26259;50.214;18.620;2023-02-11T03:52:36;-0.60;99.90
22678;DHT22;26259;50.214;18.620;2023-02-11T03:55:06;-0.70;99.90
22678;DHT22;26259;50.214;18.620;2023-02-11T03:57:33;-0.60;99.90
22678;DHT22;26259;50.214;18.620;2023-02-11T03:59:59;-0.60;99.90
22678;DHT22;26259;50.214;18.620;2023-02-11T04:02:32;-0.60;99.90
22678;DHT22;26259;50.214;18.620;2023-02-11T04:04:58;-0.50;99.90
22678;DHT22;26259;50.214;18.620;2023-02-11T04:07:24;-0.50;99.90
22678;DHT22;26259;50.214;18.620;2023-02-11T04:09:50;-0.40;99.90
22678;DHT22;26259;50.214;18.620;2023-02-11T04:12:16;-0.40;99.90
22678;DHT22;26259;50.214;18.620;2023-02-11T04:14:41;-0.40;99.90
22678;DHT22;26259;50.214;18.620;2023-02-11T04:17:07;-0.50;99.90
22678;DHT22;26259;50.214;18.620;2023-02-11T04:19:33;-0.40;99.90
22678;DHT22;26259;50.214;18.620;2023-02-11T04:21:59;-0.40;99.90
22678;DHT22;26259;50.214;18.620;2023-02-11T04:24:24;-0.40;99.90
22678;DHT22;26259;50.214;18.620;2023-02-11T04:26:50;-0.40;99.90
22678;DHT22;26259;50.214;18.620;2023-02-11T04:29:15;-0.40;99.90
22678;DHT22;26259;50.214;18.620;2023-02-11T04:31:41;-0.40;99.90
22678;DHT22;26259;50.214;18.620;2023-02-11T04:34:07;-0.40;99.90
22678;DHT22;26259;50.214;18.620;2023-02-11T04:36:32;-0.40;99.90
22678;DHT22;26259;50.214;18.620;2023-02-11T04:38:58;-0.40;99.90
22678;DHT22;26259;50.214;18.620;2023-02-11T04:41:23;-0.40;99.90
22678;DHT22;26259;50.214;18.620;2023-02-11T04:43:49;-0.40;99.90
22678;DHT22;26259;50.214;18.620;2023-02-11T04:46:14;-0.40;99.90
22678;DHT22;26259;50.214;18.620;2023-02-11T04:48:40;-0.40;99.90
22678;DHT22;26259;50.214;18.620;2023-02-11T04:51:05;-0.40;99.90
22678;DHT22;26259;50.214;18.620;2023-02-11T04:53:31;-0.40;99.90
22678;DHT22;26259;50.214;18.620;2023-02-11T04:55:57;-0.40;99.90
22678;DHT22;26259;50.214;18.620;2023-02-11T04:58:22;-0.30;99.90
22678;DHT22;26259;50.214;18.620;2023-02-11T05:00:48;-0.30;99.90
22678;DHT22;26259;50.214;18.620;2023-02-11T05:03:15;-0.30;99.90
22678;DHT22;26259;50.214;18.620;2023-02-11T05:05:41;-0.30;99.90
22678;DHT22;26259;50.214;18.620;2023-02-11T05:08:08;-0.40;99.90
22678;DHT22;26259;50.214;18.620;2023-02-11T05:10:34;-0.30;99.90
22678;DHT22;26259;50.214;18.620;2023-02-11T05:13:00;-0.30;99.90
22678;DHT22;26259;50.214;18.620;2023-02-11T05:15:26;-0.20;99.90
22678;DHT22;26259;50.214;18.620;2023-02-11T05:17:51;-0.20;99.90
22678;DHT22;26259;50.214;18.620;2023-02-11T05:20:17;-0.20;99.90
22678;DHT22;26259;50.214;18.620;2023-02-11T05:22:43;-0.20;99.90
22678;DHT22;26259;50.214;18.620;2023-02-11T05:25:08;-0.20;99.90
22678;DHT22;26259;50.214;18.620;2023-02-11T05:27:34;-0.10;99.90
22678;DHT22;26259;50.214;18.620;2023-02-11T05:30:00;-0.20;99.90
22678;DHT22;26259;50.214;18.620;2023-02-11T05:32:25;-0.10;99.90
22678;DHT22;26259;50.214;18.620;2023-02-11T05:34:51;-0.10;99.90
22678;DHT22;26259;50.214;18.620;2023-02-11T05:37:17;-0.10;99.90
22678;DHT22;26259;50.214;18.620;2023-02-11T05:39:42;-0.10;99.90
22678;DHT22;26259;50.214;18.620;2023-02-11T05:42:08;-0.10;99.90
22678;DHT22;26259;50.214;18.620;2023-02-11T05:44:33;0.00;99.90
22678;DHT22;26259;50.214;18.620;2023-02-11T05:46:59;0.00;99.90
22678;DHT22;26259;50.214;18.620;2023-02-11T05:49:25;-0.10;99.90
22678;DHT22;26259;50.214;18.620;2023-02-11T05:51:50;-0.10;99.90
22678;DHT22;26259;50.214;18.620;2023-02-11T05:54:16;-0.10;99.90
22678;DHT22;26259;50.214;18.620;2023-02-11T05:56:42;-0.10;99.90
22678;DHT22;26259;50.214;18.620;2023-02-11T05:59:07;-0.10;99.90
22678;DHT22;26259;50.214;18.620;2023-02-11T06:01:33;-0.20;99.90
22678;DHT22;26259;50.214;18.620;2023-02-11T06:03:59;-0.20;99.90
22678;DHT22;26259;50.214;18.620;2023-02-11T06:06:25;-0.20;99.90
22678;DHT22;26259;50.214;18.620;2023-02-11T06:08:50;-0.20;99.90
22678;DHT22;26259;50.214;18.620;2023-02-11T06:11:16;-0.30;99.90
22678;DHT22;26259;50.214;18.620;2023-02-11T06:13:42;-0.30;99.90
22678;DHT22;26259;50.214;18.620;2023-02-11T06:16:08;-0.40;99.90
22678;DHT22;26259;50.214;18.620;2023-02-11T06:18:33;-0.40;99.90
22678;DHT22;26259;50.214;18.620;2023-02-11T06:20:59;-0.40;99.90
22678;DHT22;26259;50.214;18.620;2023-02-11T06:23:25;-0.40;99.90
22678;DHT22;26259;50.214;18.620;2023-02-11T06:25:51;-0.30;99.90
22678;DHT22;26259;50.214;18.620;2023-02-11T06:28:17;-0.30;99.90
22678;DHT22;26259;50.214;18.620;2023-02-11T06:30:42;-0.30;99.90
22678;DHT22;26259;50.214;18.620;2023-02-11T06:33:08;-0.30;99.90
22678;DHT22;26259;50.214;18.620;2023-02-11T06:35:34;-0.30;99.90
22678;DHT22;26259;50.214;18.620;2023-02-11T06:38:01;-0.30;99.90
22678;DHT22;26259;50.214;18.620;2023-02-11T06:40:26;-0.20;99.90
22678;DHT22;26259;50.214;18.620;2023-02-11T06:42:52;-0.20;99.90
22678;DHT22;26259;50.214;18.620;2023-02-11T06:45:17;-0.20;99.90
22678;DHT22;26259;50.214;18.620;2023-02-11T06:47:45;-0.20;99.90
22678;DHT22;26259;50.214;18.620;2023-02-11T06:50:12;-0.20;99.90
22678;DHT22;26259;50.214;18.620;2023-02-11T06:52:39;-0.20;99.90
22678;DHT22;26259;50.214;18.620;2023-02-11T06:55:04;-0.20;99.90
22678;DHT22;26259;50.214;18.620;2023-02-11T06:57:30;-0.20;99.90
22678;DHT22;26259;50.214;18.620;2023-02-11T06:59:56;-0.10;99.90
22678;DHT22;26259;50.214;18.620;2023-02-11T07:02:22;-0.10;99.90
22678;DHT22;26259;50.214;18.620;2023-02-11T07:04:48;-0.10;99.90
22678;DHT22;26259;50.214;18.620;2023-02-11T07:07:14;-0.10;99.90
22678;DHT22;26259;50.214;18.620;2023-02-11T07:09:39;-0.10;99.90
22678;DHT22;26259;50.214;18.620;2023-02-11T07:12:05;-0.10;99.90
22678;DHT22;26259;50.214;18.620;2023-02-11T07:14:31;-0.10;99.90
22678;DHT22;26259;50.214;18.620;2023-02-11T07:16:56;-0.10;99.90
22678;DHT22;26259;50.214;18.620;2023-02-11T07:19:22;-0.20;99.90
22678;DHT22;26259;50.214;18.620;2023-02-11T07:21:48;-0.20;99.90
22678;DHT22;26259;50.214;18.620;2023-02-11T07:24:13;-0.20;99.90
22678;DHT22;26259;50.214;18.620;2023-02-11T07:26:39;-0.20;99.90
22678;DHT22;26259;50.214;18.620;2023-02-11T07:29:05;-0.20;99.90
22678;DHT22;26259;50.214;18.620;2023-02-11T07:31:31;-0.20;99.90
22678;DHT22;26259;50.214;18.620;2023-02-11T07:33:59;-0.20;99.90
22678;DHT22;26259;50.214;18.620;2023-02-11T07:36:26;-0.10;99.90
22678;DHT22;26259;50.214;18.620;2023-02-11T07:38:52;0.10;99.90
22678;DHT22;26259;50.214;18.620;2023-02-11T07:41:20;0.40;99.90
22678;DHT22;26259;50.214;18.620;2023-02-11T07:43:46;0.60;99.90
22678;DHT22;26259;50.214;18.620;2023-02-11T07:46:15;0.80;99.90
22678;DHT22;26259;50.214;18.620;2023-02-11T07:48:41;0.90;99.90
22678;DHT22;26259;50.214;18.620;2023-02-11T07:51:27;1.00;99.90
22678;DHT22;26259;50.214;18.620;2023-02-11T07:53:54;1.20;99.90
22678;DHT22;26259;50.214;18.620;2023-02-11T07:56:21;1.30;99.90
22678;DHT22;26259;50.214;18.620;2023-02-11T07:58:47;1.30;99.90
22678;DHT22;26259;50.214;18.620;2023-02-11T08:01:17;1.40;99.90
22678;DHT22;26259;50.214;18.620;2023-02-11T08:03:43;1.40;99.90
22678;DHT22;26259;50.214;18.620;2023-02-11T08:06:11;1.60;99.90
22678;DHT22;26259;50.214;18.620;2023-02-11T08:08:38;1.70;99.90
22678;DHT22;26259;50.214;18.620;2023-02-11T08:11:12;1.70;99.90
22678;DHT22;26259;50.214;18.620;2023-02-11T08:13:38;1.80;99.90
22678;DHT22;26259;50.214;18.620;2023-02-11T08:16:04;1.80;99.90
22678;DHT22;26259;50.214;18.620;2023-02-11T08:18:31;1.90;99.90
22678;DHT22;26259;50.214;18.620;2023-02-11T08:21:08;2.10;99.90
22678;DHT22;26259;50.214;18.620;2023-02-11T08:23:39;2.10;99.90
22678;DHT22;26259;50.214;18.620;2023-02-11T08:26:07;2.10;99.90
22678;DHT22;26259;50.214;18.620;2023-02-11T08:28:37;2.20;99.90
22678;DHT22;26259;50.214;18.620;2023-02-11T08:31:12;2.20;99.90
22678;DHT22;26259;50.214;18.620;2023-02-11T08:33:38;2.30;99.90
22678;DHT22;26259;50.214;18.620;2023-02-11T08:36:22;2.30;99.90
22678;DHT22;26259;50.214;18.620;2023-02-11T08:38:48;2.30;99.90
22678;DHT22;26259;50.214;18.620;2023-02-11T08:41:15;2.30;99.90
22678;DHT22;26259;50.214;18.620;2023-02-11T08:43:42;2.30;99.90
22678;DHT22;26259;50.214;18.620;2023-02-11T08:46:13;2.30;99.90
22678;DHT22;26259;50.214;18.620;2023-02-11T08:48:39;2.40;99.90
22678;DHT22;26259;50.214;18.620;2023-02-11T08:51:06;2.50;99.90
22678;DHT22;26259;50.214;18.620;2023-02-11T08:53:32;2.60;99.90
22678;DHT22;26259;50.214;18.620;2023-02-11T08:55:58;2.70;99.90
22678;DHT22;26259;50.214;18.620;2023-02-11T08:58:24;2.80;99.90
22678;DHT22;26259;50.214;18.620;2023-02-11T09:00:49;2.90;99.90
22678;DHT22;26259;50.214;18.620;2023-02-11T09:03:15;2.90;99.90
22678;DHT22;26259;50.214;18.620;2023-02-11T09:05:47;2.90;99.90
22678;DHT22;26259;50.214;18.620;2023-02-11T09:08:15;3.00;99.90
22678;DHT22;26259;50.214;18.620;2023-02-11T09:10:41;3.10;99.90
22678;DHT22;26259;50.214;18.620;2023-02-11T09:13:07;3.10;99.90
22678;DHT22;26259;50.214;18.620;2023-02-11T09:15:34;3.10;99.90
22678;DHT22;26259;50.214;18.620;2023-02-11T09:18:00;3.20;99.90
22678;DHT22;26259;50.214;18.620;2023-02-11T09:20:26;3.10;99.90
22678;DHT22;26259;50.214;18.620;2023-02-11T09:22:53;3.10;99.90
22678;DHT22;26259;50.214;18.620;2023-02-11T09:25:19;3.10;99.90
22678;DHT22;26259;50.214;18.620;2023-02-11T09:27:44;3.00;99.90
22678;DHT22;26259;50.214;18.620;2023-02-11T09:30:11;3.10;99.90
22678;DHT22;26259;50.214;18.620;2023-02-11T09:32:37;3.10;99.90
22678;DHT22;26259;50.214;18.620;2023-02-11T09:35:03;3.10;99.90
22678;DHT22;26259;50.214;18.620;2023-02-11T09:37:28;3.20;99.90
22678;DHT22;26259;50.214;18.620;2023-02-11T09:39:54;3.20;99.90
22678;DHT22;26259;50.214;18.620;2023-02-11T09:45:13;3.20;99.90
22678;DHT22;26259;50.214;18.620;2023-02-11T09:47:52;3.30;99.90
22678;DHT22;26259;50.214;18.620;2023-02-11T09:50:23;3.30;99.90
22678;DHT22;26259;50.214;18.620;2023-02-11T09:52:57;3.50;99.90
22678;DHT22;26259;50.214;18.620;2023-02-11T09:55:34;3.50;99.90
22678;DHT22;26259;50.214;18.620;2023-02-11T09:58:13;3.50;99.90
22678;DHT22;26259;50.214;18.620;2023-02-11T10:00:47;3.60;99.90
22678;DHT22;26259;50.214;18.620;2023-02-11T10:12:16;3.70;99.90
22678;DHT22;26259;50.214;18.620;2023-02-11T10:15:12;3.70;99.90
22678;DHT22;26259;50.214;18.620;2023-02-11T10:20:33;3.80;99.90
22678;DHT22;26259;50.214;18.620;2023-02-11T10:23:16;3.90;99.90
22678;DHT22;26259;50.214;18.620;2023-02-11T10:25:45;3.90;99.90
22678;DHT22;26259;50.214;18.620;2023-02-11T10:28:19;3.90;99.90
22678;DHT22;26259;50.214;18.620;2023-02-11T10:33:41;3.90;99.90
22678;DHT22;26259;50.214;18.620;2023-02-11T10:36:10;3.90;99.90
22678;DHT22;26259;50.214;18.620;2023-02-11T10:38:36;3.90;99.90
22678;DHT22;26259;50.214;18.620;2023-02-11T10:41:02;3.90;99.90
22678;DHT22;26259;50.214;18.620;2023-02-11T10:43:29;4.00;99.90
22678;DHT22;26259;50.214;18.620;2023-02-11T10:45:56;4.10;99.90
22678;DHT22;26259;50.214;18.620;2023-02-11T10:51:21;4.30;99.90
22678;DHT22;26259;50.214;18.620;2023-02-11T10:53:49;4.40;99.90
22678;DHT22;26259;50.214;18.620;2023-02-11T10:56:25;4.60;99.90
22678;DHT22;26259;50.214;18.620;2023-02-11T10:59:00;4.70;99.90
22678;DHT22;26259;50.214;18.620;2023-02-11T11:01:51;4.80;99.90
22678;DHT22;26259;50.214;18.620;2023-02-11T11:04:33;4.90;99.90
22678;DHT22;26259;50.214;18.620;2023-02-11T11:10:02;4.50;99.90
22678;DHT22;26259;50.214;18.620;2023-02-11T11:17:39;4.20;99.90
22678;DHT22;26259;50.214;18.620;2023-02-11T11:22:40;4.10;99.90
22678;DHT22;26259;50.214;18.620;2023-02-11T11:25:23;4.00;99.90
22678;DHT22;26259;50.214;18.620;2023-02-11T11:27:53;4.00;99.90
22678;DHT22;26259;50.214;18.620;2023-02-11T11:30:19;4.00;99.90
22678;DHT22;26259;50.214;18.620;2023-02-11T11:32:45;4.00;99.90
22678;DHT22;26259;50.214;18.620;2023-02-11T11:35:29;4.00;99.90
22678;DHT22;26259;50.214;18.620;2023-02-11T11:38:02;4.00;99.90
22678;DHT22;26259;50.214;18.620;2023-02-11T11:40:33;4.00;99.90
22678;DHT22;26259;50.214;18.620;2023-02-11T11:45:37;3.80;99.90
22678;DHT22;26259;50.214;18.620;2023-02-11T11:48:17;3.80;99.90
22678;DHT22;26259;50.214;18.620;2023-02-11T11:50:59;3.90;99.90
22678;DHT22;26259;50.214;18.620;2023-02-11T11:56:20;4.10;99.90
22678;DHT22;26259;50.214;18.620;2023-02-11T11:58:46;4.10;99.90
22678;DHT22;26259;50.214;18.620;2023-02-11T12:07:09;4.20;99.90
22678;DHT22;26259;50.214;18.620;2023-02-11T12:15:10;4.10;99.90
22678;DHT22;26259;50.214;18.620;2023-02-11T12:20:58;4.10;99.90
22678;DHT22;26259;50.214;18.620;2023-02-11T12:23:57;4.10;99.90
22678;DHT22;26259;50.214;18.620;2023-02-11T12:26:45;4.10;99.90
22678;DHT22;26259;50.214;18.620;2023-02-11T12:29:27;4.10;99.90
22678;DHT22;26259;50.214;18.620;2023-02-11T12:32:16;4.10;99.90
22678;DHT22;26259;50.214;18.620;2023-02-11T12:35:13;4.10;99.90
22678;DHT22;26259;50.214;18.620;2023-02-11T12:43:36;4.00;99.90
22678;DHT22;26259;50.214;18.620;2023-02-11T12:46:27;3.90;99.90
22678;DHT22;26259;50.214;18.620;2023-02-11T12:51:57;3.70;99.90
22678;DHT22;26259;50.214;18.620;2023-02-11T12:54:50;3.60;99.90
22678;DHT22;26259;50.214;18.620;2023-02-11T12:57:22;3.60;99.90
22678;DHT22;26259;50.214;18.620;2023-02-11T13:00:16;3.60;99.90
22678;DHT22;26259;50.214;18.620;2023-02-11T13:08:05;3.60;99.90
22678;DHT22;26259;50.214;18.620;2023-02-11T13:10:39;3.70;99.90
22678;DHT22;26259;50.214;18.620;2023-02-11T13:13:34;3.70;99.90
22678;DHT22;26259;50.214;18.620;2023-02-11T13:16:06;3.70;99.90
22678;DHT22;26259;50.214;18.620;2023-02-11T13:21:36;3.70;99.90
22678;DHT22;26259;50.214;18.620;2023-02-11T13:24:18;3.60;99.90
22678;DHT22;26259;50.214;18.620;2023-02-11T13:32:10;3.70;99.90
22678;DHT22;26259;50.214;18.620;2023-02-11T13:37:37;3.80;99.90
22678;DHT22;26259;50.214;18.620;2023-02-11T13:40:25;3.80;99.90
22678;DHT22;26259;50.214;18.620;2023-02-11T13:42:53;3.80;99.90
22678;DHT22;26259;50.214;18.620;2023-02-11T13:45:46;3.80;99.90
22678;DHT22;26259;50.214;18.620;2023-02-11T13:48:22;3.80;99.90
22678;DHT22;26259;50.214;18.620;2023-02-11T13:51:05;3.90;99.90
22678;DHT22;26259;50.214;18.620;2023-02-11T13:53:56;3.90;99.90
22678;DHT22;26259;50.214;18.620;2023-02-11T13:56:34;3.90;99.90
22678;DHT22;26259;50.214;18.620;2023-02-11T13:59:02;3.80;99.90
22678;DHT22;26259;50.214;18.620;2023-02-11T14:04:33;3.90;99.90
22678;DHT22;26259;50.214;18.620;2023-02-11T14:07:32;3.80;99.90
22678;DHT22;26259;50.214;18.620;2023-02-11T14:13:27;3.70;99.90
22678;DHT22;26259;50.214;18.620;2023-02-11T14:18:37;3.80;99.90
22678;DHT22;26259;50.214;18.620;2023-02-11T14:26:51;3.80;99.90
22678;DHT22;26259;50.214;18.620;2023-02-11T14:40:25;3.60;99.90
22678;DHT22;26259;50.214;18.620;2023-02-11T14:42:53;3.60;99.90
22678;DHT22;26259;50.214;18.620;2023-02-11T14:45:25;3.60;99.90
22678;DHT22;26259;50.214;18.620;2023-02-11T14:48:03;3.60;99.90
22678;DHT22;26259;50.214;18.620;2023-02-11T14:53:15;3.60;99.90
22678;DHT22;26259;50.214;18.620;2023-02-11T14:55:45;3.60;99.90
22678;DHT22;26259;50.214;18.620;2023-02-11T14:58:18;3.60;99.90
22678;DHT22;26259;50.214;18.620;2023-02-11T15:00:51;3.70;99.90
22678;DHT22;26259;50.214;18.620;2023-02-11T15:03:46;3.60;99.90
22678;DHT22;26259;50.214;18.620;2023-02-11T15:06:32;3.70;99.90
22678;DHT22;26259;50.214;18.620;2023-02-11T15:08:59;3.70;99.90
22678;DHT22;26259;50.214;18.620;2023-02-11T15:11:30;3.60;99.90
22678;DHT22;26259;50.214;18.620;2023-02-11T15:13:58;3.60;99.90
22678;DHT22;26259;50.214;18.620;2023-02-11T15:16:27;3.60;99.90
22678;DHT22;26259;50.214;18.620;2023-02-11T15:18:57;3.70;99.90
22678;DHT22;26259;50.214;18.620;2023-02-11T15:21:30;3.70;99.90
22678;DHT22;26259;50.214;18.620;2023-02-11T15:23:59;3.70;99.90
22678;DHT22;26259;50.214;18.620;2023-02-11T15:26:26;3.70;99.90
22678;DHT22;26259;50.214;18.620;2023-02-11T15:28:52;3.70;99.90
22678;DHT22;26259;50.214;18.620;2023-02-11T15:31:24;3.70;99.90
22678;DHT22;26259;50.214;18.620;2023-02-11T15:33:51;3.70;99.90
22678;DHT22;26259;50.214;18.620;2023-02-11T15:36:20;3.60;99.90
22678;DHT22;26259;50.214;18.620;2023-02-11T15:41:50;3.60;99.90
22678;DHT22;26259;50.214;18.620;2023-02-11T15:44:29;3.50;99.90
22678;DHT22;26259;50.214;18.620;2023-02-11T15:46:55;3.40;99.90
22678;DHT22;26259;50.214;18.620;2023-02-11T15:49:23;3.40;99.90
22678;DHT22;26259;50.214;18.620;2023-02-11T15:51:49;3.30;99.90
22678;DHT22;26259;50.214;18.620;2023-02-11T15:54:24;3.20;99.90
22678;DHT22;26259;50.214;18.620;2023-02-11T15:56:53;3.10;99.90
22678;DHT22;26259;50.214;18.620;2023-02-11T15:59:25;3.10;99.90
22678;DHT22;26259;50.214;18.620;2023-02-11T16:01:52;3.10;99.90
22678;DHT22;26259;50.214;18.620;2023-02-11T16:04:24;3.10;99.90
22678;DHT22;26259;50.214;18.620;2023-02-11T16:06:51;3.10;99.90
22678;DHT22;26259;50.214;18.620;2023-02-11T16:09:34;3.00;99.90
22678;DHT22;26259;50.214;18.620;2023-02-11T16:12:03;3.00;99.90
22678;DHT22;26259;50.214;18.620;2023-02-11T16:14:30;2.90;99.90
22678;DHT22;26259;50.214;18.620;2023-02-11T16:17:10;2.90;99.90
22678;DHT22;26259;50.214;18.620;2023-02-11T16:19:45;2.90;99.90
22678;DHT22;26259;50.214;18.620;2023-02-11T16:22:19;2.90;99.90
22678;DHT22;26259;50.214;18.620;2023-02-11T16:24:48;2.80;99.90
22678;DHT22;26259;50.214;18.620;2023-02-11T16:27:31;2.80;99.90
22678;DHT22;26259;50.214;18.620;2023-02-11T16:29:59;2.80;99.90
22678;DHT22;26259;50.214;18.620;2023-02-11T16:32:26;2.70;99.90
22678;DHT22;26259;50.214;18.620;2023-02-11T16:34:54;2.70;99.90
22678;DHT22;26259;50.214;18.620;2023-02-11T16:37:22;2.70;99.90
22678;DHT22;26259;50.214;18.620;2023-02-11T16:39:48;2.70;99.90
22678;DHT22;26259;50.214;18.620;2023-02-11T16:42:14;2.70;99.90
22678;DHT22;26259;50.214;18.620;2023-02-11T16:44:40;2.70;99.90
22678;DHT22;26259;50.214;18.620;2023-02-11T16:47:09;2.70;99.90
22678;DHT22;26259;50.214;18.620;2023-02-11T16:49:40;2.70;99.90
22678;DHT22;26259;50.214;18.620;2023-02-11T16:52:11;2.70;99.90
22678;DHT22;26259;50.214;18.620;2023-02-11T16:54:37;2.70;99.90
22678;DHT22;26259;50.214;18.620;2023-02-11T16:57:21;2.70;99.90
22678;DHT22;26259;50.214;18.620;2023-02-11T16:59:47;2.70;99.90
22678;DHT22;26259;50.214;18.620;2023-02-11T17:02:21;2.70;99.90
22678;DHT22;26259;50.214;18.620;2023-02-11T17:04:49;2.70;99.90
22678;DHT22;26259;50.214;18.620;2023-02-11T17:07:15;2.70;99.90
22678;DHT22;26259;50.214;18.620;2023-02-11T17:09:40;2.70;99.90
22678;DHT22;26259;50.214;18.620;2023-02-11T17:12:06;2.70;99.90
22678;DHT22;26259;50.214;18.620;2023-02-11T17:14:31;2.70;99.90
22678;DHT22;26259;50.214;18.620;2023-02-11T17:16:57;2.70;99.90
22678;DHT22;26259;50.214;18.620;2023-02-11T17:19:23;2.80;99.90
22678;DHT22;26259;50.214;18.620;2023-02-11T17:21:50;2.80;99.90
22678;DHT22;26259;50.214;18.620;2023-02-11T17:24:17;2.80;99.90
22678;DHT22;26259;50.214;18.620;2023-02-11T17:26:44;2.80;99.90
22678;DHT22;26259;50.214;18.620;2023-02-11T17:29:12;2.80;99.90
22678;DHT22;26259;50.214;18.620;2023-02-11T17:31:38;2.80;99.90
22678;DHT22;26259;50.214;18.620;2023-02-11T17:34:04;2.80;99.90
22678;DHT22;26259;50.214;18.620;2023-02-11T17:36:30;2.80;99.90
22678;DHT22;26259;50.214;18.620;2023-02-11T17:38:58;2.80;99.90
22678;DHT22;26259;50.214;18.620;2023-02-11T17:41:25;2.80;99.90
22678;DHT22;26259;50.214;18.620;2023-02-11T17:43:51;2.80;99.90
22678;DHT22;26259;50.214;18.620;2023-02-11T17:46:16;2.90;99.90
22678;DHT22;26259;50.214;18.620;2023-02-11T17:48:42;2.90;99.90
22678;DHT22;26259;50.214;18.620;2023-02-11T17:53:46;2.80;99.90
22678;DHT22;26259;50.214;18.620;2023-02-11T17:56:11;2.80;99.90
22678;DHT22;26259;50.214;18.620;2023-02-11T17:58:37;2.80;99.90
22678;DHT22;26259;50.214;18.620;2023-02-11T18:01:03;2.80;99.90
22678;DHT22;26259;50.214;18.620;2023-02-11T18:03:28;2.80;99.90